sensor_id;sensor_type;location;lat;lon;timestamp;temperature;humidity
20416;DHT22;10367;52.202;5.996;2023-06-14T00:00:39;17.80;74.20
20416;DHT22;10367;52.202;5.996;2023-06-14T00:03:08;17.90;74.20
20416;DHT22;10367;52.202;5.996;2023-06-14T00:05:45;17.80;74.30
20416;DHT22;10367;52.202;5.996;2023-06-14T00:08:15;17.80;74.40
20416;DHT22;10367;52.202;5.996;2023-06-14T00:10:46;17.80;74.50
20416;DHT22;10367;52.202;5.996;2023-06-14T00:13:15;17.70;74.60
20416;DHT22;10367;52.202;5.996;2023-06-14T00:15:45;17.80;74.60
20416;DHT22;10367;52.202;5.996;2023-06-14T00:18:14;17.80;74.50
20416;DHT22;10367;52.202;5.996;2023-06-14T00:20:43;17.70;74.50
20416;DHT22;10367;52.202;5.996;2023-06-14T00:23:15;17.70;74.60
20416;DHT22;10367;52.202;5.996;2023-06-14T00:25:44;17.60;74.80
20416;DHT22;10367;52.202;5.996;2023-06-14T00:28:13;17.60;75.00
20416;DHT22;10367;52.202;5.996;2023-06-14T00:30:42;17.50;75.20
20416;DHT22;10367;52.202;5.996;2023-06-14T00:33:14;17.60;75.90
20416;DHT22;10367;52.202;5.996;2023-06-14T00:35:47;17.60;75.20
20416;DHT22;10367;52.202;5.996;2023-06-14T00:38:20;17.60;75.20
20416;DHT22;10367;52.202;5.996;2023-06-14T00:40:56;17.50;75.40
20416;DHT22;10367;52.202;5.996;2023-06-14T00:43:25;17.40;75.80
20416;DHT22;10367;52.202;5.996;2023-06-14T00:45:54;17.30;76.20
20416;DHT22;10367;52.202;5.996;2023-06-14T00:48:24;17.20;76.40
20416;DHT22;10367;52.202;5.996;2023-06-14T00:50:54;17.20;76.50
20416;DHT22;10367;52.202;5.996;2023-06-14T00:53:25;17.20;76.60
20416;DHT22;10367;52.202;5.996;2023-06-14T00:56:06;17.20;76.50
20416;DHT22;10367;52.202;5.996;2023-06-14T00:58:35;17.10;76.80
20416;DHT22;10367;52.202;5.996;2023-06-14T01:01:07;17.10;77.10
20416;DHT22;10367;52.202;5.996;2023-06-14T01:03:37;17.00;77.00
20416;DHT22;10367;52.202;5.996;2023-06-14T01:06:15;17.00;77.20
20416;DHT22;10367;52.202;5.996;2023-06-14T01:09:03;17.00;77.20
20416;DHT22;10367;52.202;5.996;2023-06-14T01:11:41;16.90;77.40
20416;DHT22;10367;52.202;5.996;2023-06-14T01:14:14;16.90;77.70
20416;DHT22;10367;52.202;5.996;2023-06-14T01:16:44;16.80;78.00
20416;DHT22;10367;52.202;5.996;2023-06-14T01:19:14;16.80;78.10
20416;DHT22;10367;52.202;5.996;2023-06-14T01:21:44;16.70;78.20
20416;DHT22;10367;52.202;5.996;2023-06-14T01:24:14;16.70;78.50
20416;DHT22;10367;52.202;5.996;2023-06-14T01:26:43;16.70;78.60
20416;DHT22;10367;52.202;5.996;2023-06-14T01:29:14;16.70;78.40
20416;DHT22;10367;52.202;5.996;2023-06-14T01:31:45;16.70;78.60
20416;DHT22;10367;52.202;5.996;2023-06-14T01:37:00;16.50;79.30
20416;DHT22;10367;52.202;5.996;2023-06-14T01:39:34;16.40;79.60
20416;DHT22;10367;52.202;5.996;2023-06-14T01:42:05;16.40;79.80
20416;DHT22;10367;52.202;5.996;2023-06-14T01:44:36;16.40;80.00
20416;DHT22;10367;52.202;5.996;2023-06-14T01:47:06;16.40;79.90
20416;DHT22;10367;52.202;5.996;2023-06-14T01:49:36;16.30;80.10
20416;DHT22;10367;52.202;5.996;2023-06-14T01:52:05;16.30;80.40
20416;DHT22;10367;52.202;5.996;2023-06-14T01:54:38;16.30;80.60
20416;DHT22;10367;52.202;5.996;2023-06-14T01:57:10;16.30;80.70
20416;DHT22;10367;52.202;5.996;2023-06-14T01:59:38;16.20;80.90
20416;DHT22;10367;52.202;5.996;2023-06-14T02:02:07;16.20;81.20
20416;DHT22;10367;52.202;5.996;2023-06-14T02:04:36;16.10;81.20
20416;DHT22;10367;52.202;5.996;2023-06-14T02:07:06;16.10;81.60
20416;DHT22;10367;52.202;5.996;2023-06-14T02:09:38;16.00;81.80
20416;DHT22;10367;52.202;5.996;2023-06-14T02:12:07;16.00;81.90
20416;DHT22;10367;52.202;5.996;2023-06-14T02:14:37;15.90;82.10
20416;DHT22;10367;52.202;5.996;2023-06-14T02:17:06;15.90;82.20
20416;DHT22;10367;52.202;5.996;2023-06-14T02:19:35;15.80;82.60
20416;DHT22;10367;52.202;5.996;2023-06-14T02:22:05;15.80;82.80
20416;DHT22;10367;52.202;5.996;2023-06-14T02:24:34;15.70;82.90
20416;DHT22;10367;52.202;5.996;2023-06-14T02:27:19;15.70;83.30
20416;DHT22;10367;52.202;5.996;2023-06-14T02:29:49;15.70;83.20
20416;DHT22;10367;52.202;5.996;2023-06-14T02:32:18;15.60;83.50
20416;DHT22;10367;52.202;5.996;2023-06-14T02:34:46;15.60;83.60
20416;DHT22;10367;52.202;5.996;2023-06-14T02:37:17;15.60;83.90
20416;DHT22;10367;52.202;5.996;2023-06-14T02:39:46;15.50;84.00
20416;DHT22;10367;52.202;5.996;2023-06-14T02:42:14;15.50;84.40
20416;DHT22;10367;52.202;5.996;2023-06-14T02:44:45;15.40;84.80
20416;DHT22;10367;52.202;5.996;2023-06-14T02:47:18;15.40;85.00
20416;DHT22;10367;52.202;5.996;2023-06-14T02:49:47;15.50;85.00
20416;DHT22;10367;52.202;5.996;2023-06-14T02:52:16;15.40;85.10
20416;DHT22;10367;52.202;5.996;2023-06-14T02:54:45;15.40;85.40
20416;DHT22;10367;52.202;5.996;2023-06-14T02:57:15;15.30;85.80
20416;DHT22;10367;52.202;5.996;2023-06-14T02:59:45;15.30;86.20
20416;DHT22;10367;52.202;5.996;2023-06-14T03:02:14;15.20;86.50
20416;DHT22;10367;52.202;5.996;2023-06-14T03:04:43;15.20;86.80
20416;DHT22;10367;52.202;5.996;2023-06-14T03:07:14;15.20;86.80
20416;DHT22;10367;52.202;5.996;2023-06-14T03:09:57;15.10;87.60
20416;DHT22;10367;52.202;5.996;2023-06-14T03:12:32;15.20;87.60
20416;DHT22;10367;52.202;5.996;2023-06-14T03:15:02;15.10;87.70
20416;DHT22;10367;52.202;5.996;2023-06-14T03:17:31;15.10;88.50
20416;DHT22;10367;52.202;5.996;2023-06-14T03:20:01;15.00;88.80
20416;DHT22;10367;52.202;5.996;2023-06-14T03:22:31;15.10;88.80
20416;DHT22;10367;52.202;5.996;2023-06-14T03:25:01;15.10;88.90
20416;DHT22;10367;52.202;5.996;2023-06-14T03:27:32;15.10;89.30
20416;DHT22;10367;52.202;5.996;2023-06-14T03:30:02;15.20;89.30
20416;DHT22;10367;52.202;5.996;2023-06-14T03:32:32;15.10;89.30
20416;DHT22;10367;52.202;5.996;2023-06-14T03:35:01;15.10;89.80
20416;DHT22;10367;52.202;5.996;2023-06-14T03:37:30;15.00;90.10
20416;DHT22;10367;52.202;5.996;2023-06-14T03:39:59;15.00;90.40
20416;DHT22;10367;52.202;5.996;2023-06-14T03:42:28;15.00;90.50
20416;DHT22;10367;52.202;5.996;2023-06-14T03:44:57;14.90;90.70
20416;DHT22;10367;52.202;5.996;2023-06-14T03:47:27;14.90;90.90
20416;DHT22;10367;52.202;5.996;2023-06-14T03:49:56;15.00;91.00
20416;DHT22;10367;52.202;5.996;2023-06-14T03:52:25;15.00;91.10
20416;DHT22;10367;52.202;5.996;2023-06-14T03:54:54;14.90;91.30
20416;DHT22;10367;52.202;5.996;2023-06-14T03:57:43;14.90;91.70
20416;DHT22;10367;52.202;5.996;2023-06-14T04:00:12;14.90;91.60
20416;DHT22;10367;52.202;5.996;2023-06-14T04:02:44;14.90;91.70
20416;DHT22;10367;52.202;5.996;2023-06-14T04:05:13;14.90;91.80
20416;DHT22;10367;52.202;5.996;2023-06-14T04:07:44;14.90;91.90
20416;DHT22;10367;52.202;5.996;2023-06-14T04:10:14;14.90;91.90
20416;DHT22;10367;52.202;5.996;2023-06-14T04:12:43;15.00;92.10
20416;DHT22;10367;52.202;5.996;2023-06-14T04:15:12;14.90;92.30
20416;DHT22;10367;52.202;5.996;2023-06-14T04:17:49;14.90;92.40
20416;DHT22;10367;52.202;5.996;2023-06-14T04:20:18;14.90;92.60
20416;DHT22;10367;52.202;5.996;2023-06-14T04:22:47;14.90;92.70
20416;DHT22;10367;52.202;5.996;2023-06-14T04:25:16;14.90;92.90
20416;DHT22;10367;52.202;5.996;2023-06-14T04:27:50;14.90;92.90
20416;DHT22;10367;52.202;5.996;2023-06-14T04:30:20;14.90;93.00
20416;DHT22;10367;52.202;5.996;2023-06-14T04:32:58;15.00;93.20
20416;DHT22;10367;52.202;5.996;2023-06-14T04:35:27;15.00;93.20
20416;DHT22;10367;52.202;5.996;2023-06-14T04:37:56;15.10;93.10
20416;DHT22;10367;52.202;5.996;2023-06-14T04:40:25;15.10;93.10
20416;DHT22;10367;52.202;5.996;2023-06-14T04:42:54;15.20;93.20
20416;DHT22;10367;52.202;5.996;2023-06-14T04:45:23;15.20;93.30
20416;DHT22;10367;52.202;5.996;2023-06-14T04:48:01;15.20;93.40
20416;DHT22;10367;52.202;5.996;2023-06-14T04:50:30;15.20;93.50
20416;DHT22;10367;52.202;5.996;2023-06-14T04:53:00;15.20;93.60
20416;DHT22;10367;52.202;5.996;2023-06-14T04:55:30;15.30;93.80
20416;DHT22;10367;52.202;5.996;2023-06-14T04:58:02;15.30;93.90
20416;DHT22;10367;52.202;5.996;2023-06-14T05:00:32;15.30;94.00
20416;DHT22;10367;52.202;5.996;2023-06-14T05:03:02;15.30;94.20
20416;DHT22;10367;52.202;5.996;2023-06-14T05:05:34;15.50;94.10
20416;DHT22;10367;52.202;5.996;2023-06-14T05:08:03;15.50;94.20
20416;DHT22;10367;52.202;5.996;2023-06-14T05:10:32;15.50;94.40
20416;DHT22;10367;52.202;5.996;2023-06-14T05:13:02;15.50;94.50
20416;DHT22;10367;52.202;5.996;2023-06-14T05:15:31;15.60;94.50
20416;DHT22;10367;52.202;5.996;2023-06-14T05:18:06;15.70;94.50
20416;DHT22;10367;52.202;5.996;2023-06-14T05:20:37;15.80;94.60
20416;DHT22;10367;52.202;5.996;2023-06-14T05:23:06;15.80;94.60
20416;DHT22;10367;52.202;5.996;2023-06-14T05:25:34;15.90;94.50
20416;DHT22;10367;52.202;5.996;2023-06-14T05:28:03;16.00;94.60
20416;DHT22;10367;52.202;5.996;2023-06-14T05:30:32;16.10;94.70
20416;DHT22;10367;52.202;5.996;2023-06-14T05:33:04;16.10;94.60
20416;DHT22;10367;52.202;5.996;2023-06-14T05:35:33;16.20;94.60
20416;DHT22;10367;52.202;5.996;2023-06-14T05:38:02;16.20;94.60
20416;DHT22;10367;52.202;5.996;2023-06-14T05:40:31;16.40;94.70
20416;DHT22;10367;52.202;5.996;2023-06-14T05:43:00;16.40;94.70
20416;DHT22;10367;52.202;5.996;2023-06-14T05:45:29;16.50;94.70
20416;DHT22;10367;52.202;5.996;2023-06-14T05:47:57;16.60;94.70
20416;DHT22;10367;52.202;5.996;2023-06-14T05:50:28;16.70;94.50
20416;DHT22;10367;52.202;5.996;2023-06-14T05:52:57;16.90;94.60
20416;DHT22;10367;52.202;5.996;2023-06-14T05:55:25;17.00;94.40
20416;DHT22;10367;52.202;5.996;2023-06-14T05:57:54;17.20;94.20
20416;DHT22;10367;52.202;5.996;2023-06-14T06:00:23;17.30;93.90
20416;DHT22;10367;52.202;5.996;2023-06-14T06:02:52;17.40;93.60
20416;DHT22;10367;52.202;5.996;2023-06-14T06:05:21;17.60;93.40
20416;DHT22;10367;52.202;5.996;2023-06-14T06:07:52;17.60;93.10
20416;DHT22;10367;52.202;5.996;2023-06-14T06:10:23;17.80;93.00
20416;DHT22;10367;52.202;5.996;2023-06-14T06:12:52;17.80;92.70
20416;DHT22;10367;52.202;5.996;2023-06-14T06:15:23;17.90;92.50
20416;DHT22;10367;52.202;5.996;2023-06-14T06:17:52;18.00;92.40
20416;DHT22;10367;52.202;5.996;2023-06-14T06:20:23;18.10;92.10
20416;DHT22;10367;52.202;5.996;2023-06-14T06:22:58;18.20;91.90
20416;DHT22;10367;52.202;5.996;2023-06-14T06:25:29;18.20;91.80
20416;DHT22;10367;52.202;5.996;2023-06-14T06:27:59;18.30;91.50
20416;DHT22;10367;52.202;5.996;2023-06-14T06:30:30;18.30;91.40
20416;DHT22;10367;52.202;5.996;2023-06-14T06:33:03;18.40;91.40
20416;DHT22;10367;52.202;5.996;2023-06-14T06:35:33;18.50;91.30
20416;DHT22;10367;52.202;5.996;2023-06-14T06:38:03;18.60;91.10
20416;DHT22;10367;52.202;5.996;2023-06-14T06:40:35;18.60;91.00
20416;DHT22;10367;52.202;5.996;2023-06-14T06:43:04;18.70;90.80
20416;DHT22;10367;52.202;5.996;2023-06-14T06:45:33;18.80;90.70
20416;DHT22;10367;52.202;5.996;2023-06-14T06:48:05;18.90;90.50
20416;DHT22;10367;52.202;5.996;2023-06-14T06:50:34;19.00;90.30
20416;DHT22;10367;52.202;5.996;2023-06-14T06:53:04;19.20;90.20
20416;DHT22;10367;52.202;5.996;2023-06-14T06:55:34;19.20;90.00
20416;DHT22;10367;52.202;5.996;2023-06-14T06:58:05;19.30;89.60
20416;DHT22;10367;52.202;5.996;2023-06-14T07:00:34;19.50;89.00
20416;DHT22;10367;52.202;5.996;2023-06-14T07:03:03;19.60;88.80
20416;DHT22;10367;52.202;5.996;2023-06-14T07:05:32;19.60;88.00
20416;DHT22;10367;52.202;5.996;2023-06-14T07:08:01;19.80;88.20
20416;DHT22;10367;52.202;5.996;2023-06-14T07:10:31;19.90;87.80
20416;DHT22;10367;52.202;5.996;2023-06-14T07:13:00;19.90;87.50
20416;DHT22;10367;52.202;5.996;2023-06-14T07:15:29;20.10;86.80
20416;DHT22;10367;52.202;5.996;2023-06-14T07:17:58;20.30;85.90
20416;DHT22;10367;52.202;5.996;2023-06-14T07:20:28;20.30;85.30
20416;DHT22;10367;52.202;5.996;2023-06-14T07:22:58;20.40;85.10
20416;DHT22;10367;52.202;5.996;2023-06-14T07:25:27;20.50;84.30
20416;DHT22;10367;52.202;5.996;2023-06-14T07:27:57;20.60;83.80
20416;DHT22;10367;52.202;5.996;2023-06-14T07:30:26;20.70;83.00
20416;DHT22;10367;52.202;5.996;2023-06-14T07:32:57;20.80;82.60
20416;DHT22;10367;52.202;5.996;2023-06-14T07:35:26;20.80;82.40
20416;DHT22;10367;52.202;5.996;2023-06-14T07:37:55;20.90;82.40
20416;DHT22;10367;52.202;5.996;2023-06-14T07:40:24;21.10;82.20
20416;DHT22;10367;52.202;5.996;2023-06-14T07:42:53;21.20;81.30
20416;DHT22;10367;52.202;5.996;2023-06-14T07:45:26;21.20;80.10
20416;DHT22;10367;52.202;5.996;2023-06-14T07:47:55;21.20;80.00
20416;DHT22;10367;52.202;5.996;2023-06-14T07:50:25;21.30;80.40
20416;DHT22;10367;52.202;5.996;2023-06-14T07:52:54;21.40;80.10
20416;DHT22;10367;52.202;5.996;2023-06-14T07:55:23;21.60;78.90
20416;DHT22;10367;52.202;5.996;2023-06-14T07:57:52;21.70;78.90
20416;DHT22;10367;52.202;5.996;2023-06-14T08:00:22;21.70;78.80
20416;DHT22;10367;52.202;5.996;2023-06-14T08:02:52;21.80;78.10
20416;DHT22;10367;52.202;5.996;2023-06-14T08:05:28;21.90;77.90
20416;DHT22;10367;52.202;5.996;2023-06-14T08:07:57;21.80;77.00
20416;DHT22;10367;52.202;5.996;2023-06-14T08:10:26;21.90;76.90
20416;DHT22;10367;52.202;5.996;2023-06-14T08:12:55;21.90;76.60
20416;DHT22;10367;52.202;5.996;2023-06-14T08:15:23;22.00;76.40
20416;DHT22;10367;52.202;5.996;2023-06-14T08:17:53;22.00;75.50
20416;DHT22;10367;52.202;5.996;2023-06-14T08:20:25;22.20;75.40
20416;DHT22;10367;52.202;5.996;2023-06-14T08:22:56;22.20;74.60
20416;DHT22;10367;52.202;5.996;2023-06-14T08:25:25;22.30;74.80
20416;DHT22;10367;52.202;5.996;2023-06-14T08:27:54;22.40;74.60
20416;DHT22;10367;52.202;5.996;2023-06-14T08:30:23;22.50;74.30
20416;DHT22;10367;52.202;5.996;2023-06-14T08:32:56;22.60;74.40
20416;DHT22;10367;52.202;5.996;2023-06-14T08:35:42;22.70;74.50
20416;DHT22;10367;52.202;5.996;2023-06-14T08:38:11;22.90;73.40
20416;DHT22;10367;52.202;5.996;2023-06-14T08:40:41;22.80;72.40
20416;DHT22;10367;52.202;5.996;2023-06-14T08:43:10;22.80;72.80
20416;DHT22;10367;52.202;5.996;2023-06-14T08:45:39;22.90;72.60
20416;DHT22;10367;52.202;5.996;2023-06-14T08:48:09;22.90;72.70
20416;DHT22;10367;52.202;5.996;2023-06-14T08:50:40;23.00;73.10
20416;DHT22;10367;52.202;5.996;2023-06-14T08:53:13;23.10;72.30
20416;DHT22;10367;52.202;5.996;2023-06-14T08:55:47;23.10;72.60
20416;DHT22;10367;52.202;5.996;2023-06-14T08:58:17;23.10;72.80
20416;DHT22;10367;52.202;5.996;2023-06-14T09:00:47;23.30;73.00
20416;DHT22;10367;52.202;5.996;2023-06-14T09:03:23;23.40;72.50
20416;DHT22;10367;52.202;5.996;2023-06-14T09:05:57;23.30;71.10
20416;DHT22;10367;52.202;5.996;2023-06-14T09:08:28;23.20;71.10
20416;DHT22;10367;52.202;5.996;2023-06-14T09:10:58;23.20;71.00
20416;DHT22;10367;52.202;5.996;2023-06-14T09:13:29;23.30;70.50
20416;DHT22;10367;52.202;5.996;2023-06-14T09:16:01;23.40;69.80
20416;DHT22;10367;52.202;5.996;2023-06-14T09:18:46;23.50;69.60
20416;DHT22;10367;52.202;5.996;2023-06-14T09:21:20;23.60;67.00
20416;DHT22;10367;52.202;5.996;2023-06-14T09:23:52;23.60;68.70
20416;DHT22;10367;52.202;5.996;2023-06-14T09:26:35;23.60;68.10
20416;DHT22;10367;52.202;5.996;2023-06-14T09:29:27;23.70;66.20
20416;DHT22;10367;52.202;5.996;2023-06-14T09:31:56;23.80;68.00
20416;DHT22;10367;52.202;5.996;2023-06-14T09:34:26;23.90;67.20
20416;DHT22;10367;52.202;5.996;2023-06-14T09:36:55;24.10;66.60
20416;DHT22;10367;52.202;5.996;2023-06-14T09:39:24;24.20;66.40
20416;DHT22;10367;52.202;5.996;2023-06-14T09:41:54;24.20;65.90
20416;DHT22;10367;52.202;5.996;2023-06-14T09:44:25;24.30;66.70
20416;DHT22;10367;52.202;5.996;2023-06-14T09:46:56;24.40;66.30
20416;DHT22;10367;52.202;5.996;2023-06-14T09:49:27;24.70;65.90
20416;DHT22;10367;52.202;5.996;2023-06-14T09:52:00;24.50;65.00
20416;DHT22;10367;52.202;5.996;2023-06-14T09:54:30;24.20;65.10
20416;DHT22;10367;52.202;5.996;2023-06-14T09:57:02;24.30;64.70
20416;DHT22;10367;52.202;5.996;2023-06-14T09:59:31;24.30;64.40
20416;DHT22;10367;52.202;5.996;2023-06-14T10:02:07;24.50;63.80
20416;DHT22;10367;52.202;5.996;2023-06-14T10:04:40;24.50;63.30
20416;DHT22;10367;52.202;5.996;2023-06-14T10:07:17;24.80;63.30
20416;DHT22;10367;52.202;5.996;2023-06-14T10:09:47;24.90;63.30
20416;DHT22;10367;52.202;5.996;2023-06-14T10:12:17;24.80;63.00
20416;DHT22;10367;52.202;5.996;2023-06-14T10:14:49;24.90;63.00
20416;DHT22;10367;52.202;5.996;2023-06-14T10:17:27;24.90;62.70
20416;DHT22;10367;52.202;5.996;2023-06-14T10:20:14;24.80;62.70
20416;DHT22;10367;52.202;5.996;2023-06-14T10:22:49;24.90;62.50
20416;DHT22;10367;52.202;5.996;2023-06-14T10:25:29;25.00;61.80
20416;DHT22;10367;52.202;5.996;2023-06-14T10:28:19;25.20;61.60
20416;DHT22;10367;52.202;5.996;2023-06-14T10:31:06;25.50;59.80
20416;DHT22;10367;52.202;5.996;2023-06-14T10:33:36;25.60;61.20
20416;DHT22;10367;52.202;5.996;2023-06-14T10:36:24;25.50;61.40
20416;DHT22;10367;52.202;5.996;2023-06-14T10:38:58;25.20;61.20
20416;DHT22;10367;52.202;5.996;2023-06-14T10:41:29;25.50;59.70
20416;DHT22;10367;52.202;5.996;2023-06-14T10:47:11;25.40;59.00
20416;DHT22;10367;52.202;5.996;2023-06-14T10:49:52;25.60;60.10
20416;DHT22;10367;52.202;5.996;2023-06-14T10:52:24;25.60;60.00
20416;DHT22;10367;52.202;5.996;2023-06-14T10:55:03;25.70;59.50
20416;DHT22;10367;52.202;5.996;2023-06-14T10:57:33;25.70;59.50
20416;DHT22;10367;52.202;5.996;2023-06-14T11:00:07;25.80;59.10
20416;DHT22;10367;52.202;5.996;2023-06-14T11:05:50;25.60;58.80
20416;DHT22;10367;52.202;5.996;2023-06-14T11:11:15;25.90;58.70
20416;DHT22;10367;52.202;5.996;2023-06-14T11:13:45;26.00;58.30
20416;DHT22;10367;52.202;5.996;2023-06-14T11:16:16;26.00;58.60
20416;DHT22;10367;52.202;5.996;2023-06-14T11:18:46;25.90;58.20
20416;DHT22;10367;52.202;5.996;2023-06-14T11:21:17;26.00;58.30
20416;DHT22;10367;52.202;5.996;2023-06-14T11:23:50;26.40;57.90
20416;DHT22;10367;52.202;5.996;2023-06-14T11:26:27;26.50;57.30
20416;DHT22;10367;52.202;5.996;2023-06-14T11:28:57;26.50;57.40
20416;DHT22;10367;52.202;5.996;2023-06-14T11:31:27;26.60;57.50
20416;DHT22;10367;52.202;5.996;2023-06-14T11:33:57;26.70;57.00
20416;DHT22;10367;52.202;5.996;2023-06-14T11:36:27;26.50;57.20
20416;DHT22;10367;52.202;5.996;2023-06-14T11:39:00;26.40;57.40
20416;DHT22;10367;52.202;5.996;2023-06-14T11:41:37;26.10;57.30
20416;DHT22;10367;52.202;5.996;2023-06-14T11:44:06;26.00;56.90
20416;DHT22;10367;52.202;5.996;2023-06-14T11:46:36;25.90;57.40
20416;DHT22;10367;52.202;5.996;2023-06-14T11:49:06;26.30;57.50
20416;DHT22;10367;52.202;5.996;2023-06-14T11:51:37;26.60;56.70
20416;DHT22;10367;52.202;5.996;2023-06-14T11:54:07;26.80;56.70
20416;DHT22;10367;52.202;5.996;2023-06-14T11:56:37;26.60;56.60
20416;DHT22;10367;52.202;5.996;2023-06-14T11:59:06;26.60;56.80
20416;DHT22;10367;52.202;5.996;2023-06-14T12:01:38;26.70;57.00
20416;DHT22;10367;52.202;5.996;2023-06-14T12:04:07;26.80;57.20
20416;DHT22;10367;52.202;5.996;2023-06-14T12:06:36;26.60;57.10
20416;DHT22;10367;52.202;5.996;2023-06-14T12:09:09;26.40;58.00
20416;DHT22;10367;52.202;5.996;2023-06-14T12:11:41;26.10;57.80
20416;DHT22;10367;52.202;5.996;2023-06-14T12:14:10;26.20;58.00
20416;DHT22;10367;52.202;5.996;2023-06-14T12:16:40;26.50;57.70
20416;DHT22;10367;52.202;5.996;2023-06-14T12:19:13;26.40;57.70
20416;DHT22;10367;52.202;5.996;2023-06-14T12:21:43;26.60;57.60
20416;DHT22;10367;52.202;5.996;2023-06-14T12:24:18;26.60;57.30
20416;DHT22;10367;52.202;5.996;2023-06-14T12:26:47;26.90;57.20
20416;DHT22;10367;52.202;5.996;2023-06-14T12:29:15;27.10;57.10
20416;DHT22;10367;52.202;5.996;2023-06-14T12:31:44;27.40;56.40
20416;DHT22;10367;52.202;5.996;2023-06-14T12:34:13;27.40;56.10
20416;DHT22;10367;52.202;5.996;2023-06-14T12:36:42;27.30;55.80
20416;DHT22;10367;52.202;5.996;2023-06-14T12:39:13;27.20;55.70
20416;DHT22;10367;52.202;5.996;2023-06-14T12:41:43;26.90;55.60
20416;DHT22;10367;52.202;5.996;2023-06-14T12:44:12;26.60;56.20
20416;DHT22;10367;52.202;5.996;2023-06-14T12:46:42;27.10;56.00
20416;DHT22;10367;52.202;5.996;2023-06-14T12:49:12;27.10;56.00
20416;DHT22;10367;52.202;5.996;2023-06-14T12:51:41;27.50;55.80
20416;DHT22;10367;52.202;5.996;2023-06-14T12:54:09;28.00;55.30
20416;DHT22;10367;52.202;5.996;2023-06-14T12:56:39;27.80;55.20
20416;DHT22;10367;52.202;5.996;2023-06-14T12:59:10;27.80;55.50
20416;DHT22;10367;52.202;5.996;2023-06-14T13:01:39;27.80;55.40
20416;DHT22;10367;52.202;5.996;2023-06-14T13:04:08;28.00;55.30
20416;DHT22;10367;52.202;5.996;2023-06-14T13:06:38;27.60;55.50
20416;DHT22;10367;52.202;5.996;2023-06-14T13:09:06;27.50;55.80
20416;DHT22;10367;52.202;5.996;2023-06-14T13:11:36;27.90;55.20
20416;DHT22;10367;52.202;5.996;2023-06-14T13:14:06;27.80;55.10
20416;DHT22;10367;52.202;5.996;2023-06-14T13:16:53;27.30;55.30
20416;DHT22;10367;52.202;5.996;2023-06-14T13:19:23;27.10;55.70
20416;DHT22;10367;52.202;5.996;2023-06-14T13:21:52;27.40;55.50
20416;DHT22;10367;52.202;5.996;2023-06-14T13:24:21;27.60;55.10
20416;DHT22;10367;52.202;5.996;2023-06-14T13:26:49;27.60;54.90
20416;DHT22;10367;52.202;5.996;2023-06-14T13:29:18;27.50;55.30
20416;DHT22;10367;52.202;5.996;2023-06-14T13:31:47;27.60;54.90
20416;DHT22;10367;52.202;5.996;2023-06-14T13:34:17;28.20;54.40
20416;DHT22;10367;52.202;5.996;2023-06-14T13:36:46;28.70;53.30
20416;DHT22;10367;52.202;5.996;2023-06-14T13:39:15;28.40;53.30
20416;DHT22;10367;52.202;5.996;2023-06-14T13:41:44;28.20;53.70
20416;DHT22;10367;52.202;5.996;2023-06-14T13:44:13;27.70;54.20
20416;DHT22;10367;52.202;5.996;2023-06-14T13:46:44;27.60;54.50
20416;DHT22;10367;52.202;5.996;2023-06-14T13:49:13;28.00;53.90
20416;DHT22;10367;52.202;5.996;2023-06-14T13:51:43;28.00;53.70
20416;DHT22;10367;52.202;5.996;2023-06-14T13:54:13;27.80;53.80
20416;DHT22;10367;52.202;5.996;2023-06-14T13:56:42;27.80;54.10
20416;DHT22;10367;52.202;5.996;2023-06-14T13:59:11;28.10;53.70
20416;DHT22;10367;52.202;5.996;2023-06-14T14:01:40;28.40;53.00
20416;DHT22;10367;52.202;5.996;2023-06-14T14:04:08;28.50;53.10
20416;DHT22;10367;52.202;5.996;2023-06-14T14:06:37;28.50;52.70
20416;DHT22;10367;52.202;5.996;2023-06-14T14:09:08;28.10;53.00
20416;DHT22;10367;52.202;5.996;2023-06-14T14:11:36;27.80;53.30
20416;DHT22;10367;52.202;5.996;2023-06-14T14:14:07;28.00;53.20
20416;DHT22;10367;52.202;5.996;2023-06-14T14:16:36;28.10;52.90
20416;DHT22;10367;52.202;5.996;2023-06-14T14:19:05;28.10;53.20
20416;DHT22;10367;52.202;5.996;2023-06-14T14:21:34;28.00;53.20
20416;DHT22;10367;52.202;5.996;2023-06-14T14:24:03;28.10;53.20
20416;DHT22;10367;52.202;5.996;2023-06-14T14:26:34;28.00;53.10
20416;DHT22;10367;52.202;5.996;2023-06-14T14:29:03;28.30;52.90
20416;DHT22;10367;52.202;5.996;2023-06-14T14:31:31;28.10;53.00
20416;DHT22;10367;52.202;5.996;2023-06-14T14:34:00;28.00;53.40
20416;DHT22;10367;52.202;5.996;2023-06-14T14:36:29;28.10;53.30
20416;DHT22;10367;52.202;5.996;2023-06-14T14:38:57;27.90;53.40
20416;DHT22;10367;52.202;5.996;2023-06-14T14:41:27;27.90;53.20
20416;DHT22;10367;52.202;5.996;2023-06-14T14:43:58;28.30;53.00
20416;DHT22;10367;52.202;5.996;2023-06-14T14:46:28;29.10;52.30
20416;DHT22;10367;52.202;5.996;2023-06-14T14:48:57;29.00;51.50
20416;DHT22;10367;52.202;5.996;2023-06-14T14:51:26;28.50;52.30
20416;DHT22;10367;52.202;5.996;2023-06-14T14:53:55;28.60;52.60
20416;DHT22;10367;52.202;5.996;2023-06-14T14:56:24;28.70;52.30
20416;DHT22;10367;52.202;5.996;2023-06-14T14:58:54;28.40;52.70
20416;DHT22;10367;52.202;5.996;2023-06-14T15:01:25;28.10;52.90
20416;DHT22;10367;52.202;5.996;2023-06-14T15:03:53;27.90;53.00
20416;DHT22;10367;52.202;5.996;2023-06-14T15:06:26;27.90;52.90
20416;DHT22;10367;52.202;5.996;2023-06-14T15:08:56;27.90;52.70
20416;DHT22;10367;52.202;5.996;2023-06-14T15:11:24;28.00;52.50
20416;DHT22;10367;52.202;5.996;2023-06-14T15:13:54;28.10;52.00
20416;DHT22;10367;52.202;5.996;2023-06-14T15:16:24;28.00;51.80
20416;DHT22;10367;52.202;5.996;2023-06-14T15:18:53;28.10;51.80
20416;DHT22;10367;52.202;5.996;2023-06-14T15:21:22;27.90;51.90
20416;DHT22;10367;52.202;5.996;2023-06-14T15:23:50;27.90;52.00
20416;DHT22;10367;52.202;5.996;2023-06-14T15:26:20;27.70;52.20
20416;DHT22;10367;52.202;5.996;2023-06-14T15:28:51;28.20;52.00
20416;DHT22;10367;52.202;5.996;2023-06-14T15:31:20;28.60;51.60
20416;DHT22;10367;52.202;5.996;2023-06-14T15:33:51;29.40;51.10
20416;DHT22;10367;52.202;5.996;2023-06-14T15:36:20;29.60;50.80
20416;DHT22;10367;52.202;5.996;2023-06-14T15:38:49;29.30;50.80
20416;DHT22;10367;52.202;5.996;2023-06-14T15:41:18;28.80;51.20
20416;DHT22;10367;52.202;5.996;2023-06-14T15:43:46;28.50;51.50
20416;DHT22;10367;52.202;5.996;2023-06-14T15:46:16;28.20;51.70
20416;DHT22;10367;52.202;5.996;2023-06-14T15:48:44;28.10;51.90
20416;DHT22;10367;52.202;5.996;2023-06-14T15:51:15;27.90;51.80
20416;DHT22;10367;52.202;5.996;2023-06-14T15:53:44;28.20;51.60
20416;DHT22;10367;52.202;5.996;2023-06-14T15:56:13;28.20;51.10
20416;DHT22;10367;52.202;5.996;2023-06-14T15:58:42;28.40;51.00
20416;DHT22;10367;52.202;5.996;2023-06-14T16:01:10;28.60;50.90
20416;DHT22;10367;52.202;5.996;2023-06-14T16:03:39;29.20;50.30